TimeGMT,TemperatureF,Dew PointF,Humidity,Sea Level PressureIn,VisibilityMPH,Wind Direction,Wind SpeedMPH,Gust SpeedMPH,PrecipitationIn,Events,Conditions,WindDirDegrees,DateUTC
12:20 AM,30.2,28.4,93,29.86,-9999.0,WNW,3.5,-,N/A,,Clear,290,2012-11-30 00:20:00
12:50 AM,26.6,24.8,93,29.86,-9999.0,WSW,3.5,-,N/A,,Clear,250,2012-11-30 00:50:00
1:20 AM,30.2,28.4,93,29.83,-9999.0,SW,3.5,-,N/A,,Clear,230,2012-11-30 01:20:00
1:50 AM,30.2,28.4,93,29.83,-9999.0,WSW,5.8,-,N/A,,Clear,240,2012-11-30 01:50:00
2:20 AM,30.2,28.4,93,29.83,-9999.0,Variable,3.5,-,N/A,,Clear,0,2012-11-30 02:20:00
2:50 AM,30.2,28.4,93,29.83,6.2,WSW,4.6,-,N/A,,Mostly Cloudy,240,2012-11-30 02:50:00
3:20 AM,30.2,28.4,93,29.83,6.2,West,5.8,-,N/A,,Partly Cloudy,260,2012-11-30 03:20:00
3:50 AM,28.4,26.6,93,29.83,6.2,West,3.5,-,N/A,,Partly Cloudy,260,2012-11-30 03:50:00
4:20 AM,26.6,24.8,93,29.83,-9999.0,Variable,2.3,-,N/A,,Clear,0,2012-11-30 04:20:00
4:50 AM,26.6,24.8,93,29.83,-9999.0,SW,3.5,-,N/A,,Clear,220,2012-11-30 04:50:00
5:20 AM,26.6,24.8,93,29.83,-9999.0,SW,4.6,-,N/A,,Clear,230,2012-11-30 05:20:00
5:50 AM,24.8,23.0,93,29.83,-9999.0,WSW,5.8,-,N/A,,Clear,240,2012-11-30 05:50:00
6:20 AM,24.8,23.0,93,29.83,-9999.0,WSW,5.8,-,N/A,,Clear,250,2012-11-30 06:20:00
6:50 AM,24.8,23.0,93,29.83,-9999.0,WSW,5.8,-,N/A,,Clear,250,2012-11-30 06:50:00
7:20 AM,26.6,24.8,93,29.83,-9999.0,West,4.6,-,N/A,,Clear,260,2012-11-30 07:20:00
7:50 AM,26.6,24.8,93,29.86,-9999.0,WSW,4.6,-,N/A,,Clear,250,2012-11-30 07:50:00
8:20 AM,28.4,26.6,93,29.86,6.2,West,4.6,-,N/A,,Partly Cloudy,260,2012-11-30 08:20:00
8:50 AM,28.4,26.6,93,29.86,6.2,SW,3.5,-,N/A,,Partly Cloudy,230,2012-11-30 08:50:00
9:20 AM,30.2,28.4,93,29.86,6.2,WSW,3.5,-,N/A,,Partly Cloudy,240,2012-11-30 09:20:00
9:50 AM,32.0,28.4,87,29.86,-9999.0,West,2.3,-,N/A,,Clear,280,2012-11-30 09:50:00
10:20 AM,33.8,30.2,87,29.89,-9999.0,West,4.6,-,N/A,,Clear,270,2012-11-30 10:20:00
10:50 AM,33.8,30.2,87,29.89,-9999.0,West,4.6,-,N/A,,Clear,260,2012-11-30 10:50:00
11:20 AM,35.6,30.2,81,29.89,-9999.0,West,5.8,-,N/A,,Clear,260,2012-11-30 11:20:00
11:50 AM,35.6,32.0,87,29.86,-9999.0,WSW,4.6,-,N/A,,Clear,240,2012-11-30 11:50:00
12:20 PM,37.4,32.0,81,29.86,-9999.0,WSW,4.6,-,N/A,,Clear,250,2012-11-30 12:20:00
12:50 PM,39.2,32.0,75,29.89,-9999.0,West,3.5,-,N/A,,Clear,270,2012-11-30 12:50:00
1:20 PM,39.2,32.0,75,29.86,-9999.0,SW,5.8,-,N/A,,Clear,220,2012-11-30 13:20:00
1:50 PM,39.2,32.0,75,29.86,-9999.0,WSW,5.8,-,N/A,,Clear,250,2012-11-30 13:50:00
2:20 PM,39.2,32.0,75,29.86,-9999.0,WSW,5.8,-,N/A,,Clear,240,2012-11-30 14:20:00
2:50 PM,37.4,32.0,81,29.89,-9999.0,SW,5.8,-,N/A,,Clear,230,2012-11-30 14:50:00
3:20 PM,37.4,32.0,81,29.89,-9999.0,WSW,5.8,-,N/A,,Clear,250,2012-11-30 15:20:00
3:50 PM,35.6,30.2,81,29.89,-9999.0,SW,6.9,-,N/A,,Clear,230,2012-11-30 15:50:00
4:20 PM,35.6,30.2,81,29.89,-9999.0,WSW,5.8,-,N/A,,Clear,250,2012-11-30 16:20:00
4:50 PM,35.6,30.2,81,29.89,-9999.0,West,5.8,-,N/A,,Clear,260,2012-11-30 16:50:00
5:20 PM,35.6,30.2,81,29.89,6.2,West,4.6,-,N/A,,Mostly Cloudy,280,2012-11-30 17:20:00
5:50 PM,35.6,32.0,87,29.89,6.2,WSW,5.8,-,N/A,Rain,Light Rain,250,2012-11-30 17:50:00
6:20 PM,33.8,32.0,93,29.89,6.2,WSW,4.6,-,N/A,Rain,Light Rain,240,2012-11-30 18:20:00
6:50 PM,33.8,32.0,93,29.89,6.2,WSW,4.6,-,N/A,Rain,Light Rain,250,2012-11-30 18:50:00
7:20 PM,35.6,32.0,87,29.89,6.2,West,5.8,-,N/A,Rain,Light Rain,260,2012-11-30 19:20:00
7:50 PM,35.6,33.8,93,29.89,4.3,West,5.8,-,N/A,Rain,Rain,260,2012-11-30 19:50:00
8:20 PM,35.6,33.8,93,29.89,3.1,WNW,3.5,-,N/A,Rain,Rain,290,2012-11-30 20:20:00
8:50 PM,35.6,33.8,93,29.89,3.1,West,3.5,-,N/A,Rain,Rain,280,2012-11-30 20:50:00
9:20 PM,35.6,33.8,93,29.86,2.8,Variable,2.3,-,N/A,Rain,Rain,0,2012-11-30 21:20:00
9:50 PM,35.6,33.8,93,29.86,3.1,Calm,Calm,-,N/A,Rain,Rain,0,2012-11-30 21:50:00
10:20 PM,33.8,33.8,100,29.86,3.1,Calm,Calm,-,N/A,Rain-Snow,Light Rain,0,2012-11-30 22:20:00
10:50 PM,33.8,33.8,100,29.86,3.7,West,2.3,-,N/A,Rain,Rain,260,2012-11-30 22:50:00
11:20 PM,33.8,33.8,100,29.86,4.3,Variable,2.3,-,N/A,Rain,Rain,0,2012-11-30 23:20:00
11:50 PM,33.8,33.8,100,29.86,-9999.0,Variable,2.3,-,N/A,,Overcast,0,2012-11-30 23:50:00